Buttonwillow, CA (93206)

11:11 AM PST on February 26, 2017 (GMT -0800)
MAT285 | | Change Station

Elev 285 ft 35.40 °N, 119.47 °W | Updated 15 minutes ago

Partly Cloudy
Partly Cloudy
50.0 °F
Feels Like 50.0 °F
N
0.0
Wind Variable Wind from North

Today
High -- | Low -- °F
--% Chance of Precip.
Yesterday
High -- | Low -- °F
Precip. -- in
Pressure 30.04 in
Visibility 10.0 miles
Clouds Overcast 4900 ft
Dew Point 41 °F
Humidity 71%
Rainfall 0.08 in
Snow Depth Not available.
6:30 AM 5:50 PM
New Moon, 0% visible
METAR KBFL 261854Z 32005KT 10SM OVC049 11/04 A3005 RMK AO2 SLP173 T01110044
Pressure 30.04 in
Visibility 10.0 miles
Clouds Overcast 4900 ft
Dew Point 41 °F
Humidity 71%
Rainfall 0.08 in
Snow Depth Not available.
6:30 AM 5:50 PM
New Moon, 0% visible
METAR KBFL 261854Z 32005KT 10SM OVC049 11/04 A3005 RMK AO2 SLP173 T01110044

Get Your Daily Forecast Email!

Thanks for signing up!

Be on the lookout for a verification email in your inbox.

You'll start receiving the daily forecast at 8 AM.

×

10-Day Weather Forecast

Almanac

Astronomy

Feb. 26, 2017 Rise Set
Actual Time
Civil Twilight
Nautical Twilight
Astronomical Twilight
Moon
Length of Visible Light
Length of Day
Tomorrow will be .
, % of the Moon is Illuminated

Today's Extremes

State Highs State Lows

Community

WunderPhotos

Upload Photos

1,962,540 photos uploaded!

WunderBlog® & News

Nearby

Air Quality

  Air Quality AQ Index Pollutant
Not available.

Snow Depth

Station Depth Elevation

Earthquake Activity

City Distance Mag. Time & Date
Minimum magnitude displayed is 2.5.

Coastal Water Temperatures

Place Temperature

Stations

Nearby Weather Stations

Station Location Temp. Windchill Dew Point Humidity Wind Precip. Elev Updated Type
                   

Watches & Warnings

There are currently no watches in effect.